createdAt,value
2022-12-20T05:46:20.555Z,24.85
2022-12-20T05:49:25.505Z,24.20
2022-12-20T05:52:29.087Z,24.02
2022-12-20T05:55:32.935Z,24.55
2022-12-20T05:58:36.081Z,24.55
2022-12-20T06:01:40.916Z,24.45
2022-12-20T06:04:44.737Z,24.87
2022-12-20T06:08:11.345Z,24.33
2022-12-20T06:11:14.887Z,24.27
2022-12-20T06:14:18.648Z,24.10
2022-12-20T06:17:23.131Z,25.60
2022-12-20T06:20:26.651Z,24.87
2022-12-20T06:23:31.066Z,24.17
2022-12-20T06:26:37.483Z,24.70
2022-12-20T06:29:40.441Z,25.37
2022-12-20T06:33:07.768Z,26.65
2022-12-20T06:36:43.133Z,26.30
2022-12-20T06:40:15.284Z,24.42
2022-12-20T06:44:06.663Z,25.42
2022-12-20T06:47:43.647Z,25.45
2022-12-20T06:51:30.146Z,25.30
2022-12-20T06:54:35.393Z,24.65
2022-12-20T06:57:43.637Z,24.95
2022-12-20T07:00:51.272Z,25.42
2022-12-20T07:04:01.906Z,25.27
2022-12-20T07:07:35.184Z,24.05
2022-12-20T07:11:35.893Z,23.95
2022-12-20T07:15:11.945Z,25.35
2022-12-20T07:18:15.184Z,23.30
2022-12-20T07:21:19.034Z,24.12
2022-12-20T07:24:21.223Z,25.48
2022-12-20T07:27:23.678Z,24.08
2022-12-20T07:30:26.703Z,22.50
2022-12-20T07:33:30.056Z,23.55
2022-12-20T07:36:32.419Z,22.52
2022-12-20T07:39:35.256Z,22.25
2022-12-20T07:42:42.921Z,21.75
2022-12-20T07:45:55.814Z,22.92
2022-12-20T07:49:02.420Z,21.62
2022-12-20T07:52:12.955Z,23.15
2022-12-20T07:55:21.416Z,21.77
2022-12-20T07:58:32.198Z,22.15
2022-12-20T08:01:48.288Z,21.58
2022-12-20T08:04:56.709Z,25.42
2022-12-20T08:08:03.766Z,22.23
2022-12-20T08:11:11.613Z,21.15
2022-12-20T08:14:19.419Z,25.08
2022-12-20T08:17:25.231Z,21.33
2022-12-20T08:20:29.013Z,22.02
2022-12-20T08:23:35.646Z,23.38
2022-12-20T08:26:43.224Z,21.40
2022-12-20T08:29:54.311Z,20.75
2022-12-20T08:32:59.114Z,20.02
2022-12-20T08:36:14.071Z,20.40
2022-12-20T08:39:20.345Z,20.73
2022-12-20T08:42:28.321Z,20.95
2022-12-20T08:45:34.206Z,19.27
2022-12-20T08:48:41.143Z,20.35
2022-12-20T08:51:47.517Z,19.70
2022-12-20T08:54:50.889Z,19.05
2022-12-20T08:57:54.192Z,20.65
2022-12-20T09:01:04.557Z,21.08
2022-12-20T09:04:14.070Z,21.02
2022-12-20T09:07:16.577Z,19.77
2022-12-20T09:10:18.753Z,20.02
2022-12-20T09:13:21.705Z,19.35
2022-12-20T09:16:27.919Z,19.83
2022-12-20T09:19:38.309Z,20.17
2022-12-20T09:22:46.528Z,19.90
2022-12-20T09:25:53.750Z,20.15
2022-12-20T09:28:56.711Z,18.90
2022-12-20T09:31:59.462Z,18.95
2022-12-20T09:35:04.776Z,19.70
2022-12-20T09:38:07.413Z,19.05
2022-12-20T09:41:37.283Z,19.52
2022-12-20T09:44:42.372Z,18.45
2022-12-20T09:47:44.578Z,18.55
2022-12-20T09:51:15.706Z,19.23
2022-12-20T09:54:40.125Z,18.23
2022-12-20T09:58:10.565Z,18.73
2022-12-20T10:01:25.659Z,17.67
2022-12-20T10:04:31.513Z,18.52
2022-12-20T10:07:44.868Z,19.65
2022-12-20T10:15:17.388Z,19.25
2022-12-20T10:18:41.928Z,18.20
2022-12-20T10:22:20.137Z,18.92
2022-12-20T10:29:22.818Z,18.00
2022-12-20T10:36:33.754Z,16.95
2022-12-20T10:39:51.817Z,17.08
2022-12-20T10:43:02.131Z,17.73
2022-12-20T10:46:08.316Z,17.85
2022-12-20T10:49:29.375Z,16.95
2022-12-20T10:52:32.676Z,16.37
2022-12-20T10:59:32.570Z,17.65
2022-12-20T11:02:41.570Z,16.48
2022-12-20T11:06:04.530Z,17.50
2022-12-20T11:09:33.188Z,16.42
2022-12-20T11:12:46.538Z,16.42
2022-12-20T11:15:51.954Z,17.08
2022-12-20T11:19:02.361Z,16.42
2022-12-20T11:23:03.415Z,17.25
2022-12-20T11:26:49.697Z,16.10
2022-12-20T11:30:27.433Z,17.10
2022-12-20T11:33:39.393Z,17.92
2022-12-20T11:37:23.005Z,18.10
2022-12-20T11:40:34.296Z,16.37
2022-12-20T11:47:48.076Z,18.30
2022-12-20T11:51:04.389Z,17.62
2022-12-20T11:54:19.947Z,16.65
2022-12-20T11:57:42.583Z,17.30
2022-12-20T12:01:14.984Z,16.60
2022-12-20T12:04:25.682Z,16.40
2022-12-20T12:07:31.439Z,18.10
2022-12-20T12:10:41.914Z,18.02
2022-12-20T12:13:45.168Z,17.15
2022-12-20T12:16:54.005Z,16.85
2022-12-20T12:20:07.671Z,17.42
2022-12-20T12:23:42.839Z,18.00
2022-12-20T12:26:45.461Z,17.50
2022-12-20T12:29:47.972Z,17.65
2022-12-20T12:33:03.076Z,16.65
2022-12-20T12:36:24.138Z,17.62
2022-12-20T12:39:36.720Z,17.20
2022-12-20T12:43:01.283Z,17.25
2022-12-20T12:46:14.629Z,18.05
2022-12-20T12:49:22.087Z,16.65
2022-12-20T12:52:49.646Z,17.70
2022-12-20T12:56:07.277Z,17.67
2022-12-20T12:59:24.403Z,16.00
2022-12-20T13:02:34.337Z,17.17
2022-12-20T13:05:36.781Z,18.15
2022-12-20T13:08:49.891Z,17.48
2022-12-20T13:12:02.247Z,16.83
2022-12-20T13:15:19.312Z,17.95
2022-12-20T13:18:25.649Z,18.02
2022-12-20T13:21:36.390Z,17.37
2022-12-20T13:25:28.131Z,18.23
2022-12-20T13:28:31.245Z,18.45
2022-12-20T13:31:36.852Z,17.40
2022-12-20T13:34:54.208Z,17.10
2022-12-20T13:38:25.253Z,18.15
2022-12-20T13:41:36.357Z,17.15
2022-12-20T13:44:48.426Z,17.25
2022-12-20T13:47:57.396Z,18.00
2022-12-20T13:51:00.016Z,18.17
2022-12-20T13:54:05.393Z,18.05
2022-12-20T13:57:09.559Z,18.35
2022-12-20T14:00:25.503Z,18.33
2022-12-20T14:03:30.961Z,18.15
2022-12-20T14:06:34.147Z,17.83
2022-12-20T14:09:38.822Z,17.17
2022-12-20T14:12:45.398Z,17.83
2022-12-20T14:15:48.236Z,17.65
2022-12-20T14:19:00.489Z,17.50
2022-12-20T14:22:03.414Z,18.33
2022-12-20T14:25:07.996Z,17.95
2022-12-20T14:28:27.382Z,18.48
2022-12-20T14:31:39.358Z,18.02
2022-12-20T14:34:43.216Z,18.37
2022-12-20T14:37:54.187Z,18.77
2022-12-20T14:40:56.773Z,18.35
2022-12-20T14:44:03.948Z,18.17
2022-12-20T14:47:24.813Z,18.50
2022-12-20T14:50:36.248Z,17.55
2022-12-20T14:53:42.744Z,19.20
2022-12-20T14:56:50.830Z,18.02
2022-12-20T15:00:17.855Z,18.85
2022-12-20T15:03:23.070Z,17.55
2022-12-20T15:06:35.535Z,18.92
2022-12-20T15:09:37.817Z,17.83
2022-12-20T15:12:42.552Z,18.83
2022-12-20T15:15:45.243Z,21.02
2022-12-20T15:18:52.429Z,21.37
2022-12-20T15:21:54.878Z,22.20
2022-12-20T15:24:57.594Z,23.60
2022-12-20T15:27:59.753Z,22.33
2022-12-20T15:31:04.606Z,23.10
2022-12-20T15:34:29.031Z,23.27
2022-12-20T15:37:31.681Z,23.25
2022-12-20T15:40:33.944Z,23.77
2022-12-20T15:43:39.236Z,23.02
2022-12-20T15:46:41.658Z,24.70
2022-12-20T15:49:49.768Z,24.80
2022-12-20T15:52:52.840Z,24.27
2022-12-20T15:55:59.431Z,25.30
2022-12-20T15:59:05.449Z,25.10
2022-12-20T16:02:27.067Z,25.30
2022-12-20T16:05:29.831Z,25.27
2022-12-20T16:08:32.304Z,25.10
2022-12-20T16:11:36.558Z,25.02
2022-12-20T16:14:39.105Z,24.75
2022-12-20T16:17:41.992Z,25.25
2022-12-20T16:20:44.974Z,25.10
2022-12-20T16:23:50.811Z,25.37
2022-12-20T16:26:53.500Z,25.25
2022-12-20T16:29:56.528Z,25.17
2022-12-20T16:32:59.219Z,25.08
2022-12-20T16:36:01.977Z,25.52
2022-12-20T16:39:04.463Z,24.98
2022-12-20T16:42:23.077Z,23.87
2022-12-20T16:45:31.148Z,24.12
2022-12-20T16:48:34.841Z,23.92
2022-12-20T16:51:44.536Z,24.60
2022-12-20T16:54:47.196Z,25.75
2022-12-20T16:57:50.026Z,24.45
2022-12-20T17:00:52.614Z,25.67
2022-12-20T17:03:55.063Z,25.08
2022-12-20T17:06:57.836Z,24.80
2022-12-20T17:10:12.150Z,24.12
2022-12-20T17:13:15.308Z,24.33
2022-12-20T17:16:18.327Z,25.10
2022-12-20T17:19:21.772Z,24.33
2022-12-20T17:22:24.091Z,25.55
2022-12-20T17:25:33.463Z,24.52
2022-12-20T17:28:35.826Z,26.50
2022-12-20T17:31:41.022Z,26.37
2022-12-20T17:34:43.370Z,24.65
2022-12-20T17:37:47.929Z,23.70
2022-12-20T17:40:50.220Z,25.27
2022-12-20T17:43:53.805Z,27.35
2022-12-20T17:46:57.236Z,28.35
2022-12-20T17:49:59.852Z,27.20
2022-12-20T17:53:02.752Z,26.60
2022-12-20T17:56:05.925Z,26.42
2022-12-20T17:59:10.197Z,26.40
2022-12-20T18:02:21.927Z,25.65
2022-12-20T18:05:25.299Z,27.70
2022-12-20T18:08:27.538Z,26.00
2022-12-20T18:11:30.555Z,27.58
2022-12-20T18:14:32.778Z,27.35
2022-12-20T18:17:37.367Z,27.25
2022-12-20T18:20:39.973Z,27.05
2022-12-20T18:23:43.480Z,26.77
2022-12-20T18:26:45.719Z,28.00
2022-12-20T18:29:48.774Z,27.48
2022-12-20T18:32:51.002Z,28.60
2022-12-20T18:36:09.358Z,28.62
2022-12-20T18:39:12.790Z,28.02
2022-12-20T18:42:17.443Z,28.08
2022-12-20T18:45:19.649Z,28.62
2022-12-20T18:48:27.525Z,28.23
2022-12-20T18:51:33.159Z,29.65
2022-12-20T18:54:36.200Z,29.15
2022-12-20T18:57:38.810Z,31.25
2022-12-20T19:00:41.839Z,28.42
2022-12-20T19:03:45.008Z,29.92
2022-12-20T19:06:48.377Z,28.90
2022-12-20T19:09:50.667Z,28.58
2022-12-20T19:12:53.407Z,29.63
2022-12-20T19:16:04.897Z,28.77
2022-12-20T19:19:09.080Z,28.10
2022-12-20T19:22:11.382Z,29.35
2022-12-20T19:25:14.561Z,28.85
2022-12-20T19:28:17.004Z,28.60
2022-12-20T19:31:25.111Z,28.15
2022-12-20T19:34:27.412Z,29.08
2022-12-20T19:37:36.988Z,28.70
2022-12-20T19:40:42.008Z,28.98
2022-12-20T19:43:46.383Z,27.05
2022-12-20T19:46:48.821Z,27.08
2022-12-20T19:49:51.765Z,27.67
2022-12-20T19:53:00.294Z,27.90
2022-12-20T19:56:03.294Z,27.62
2022-12-20T19:59:05.695Z,28.08
2022-12-20T20:02:12.970Z,27.62
2022-12-20T20:05:16.257Z,27.62
2022-12-20T20:08:18.927Z,27.37
2022-12-20T20:11:21.811Z,26.67
2022-12-20T20:14:24.018Z,27.37
2022-12-20T20:17:26.536Z,26.80
2022-12-20T20:20:30.623Z,25.62
2022-12-20T20:23:35.922Z,28.05
2022-12-20T20:26:38.135Z,27.05
2022-12-20T20:29:40.867Z,27.02
2022-12-20T20:32:43.164Z,26.60
2022-12-20T20:35:58.126Z,27.42
2022-12-20T20:39:02.639Z,27.45
2022-12-20T20:42:05.702Z,27.10
2022-12-20T20:45:08.749Z,27.10
2022-12-20T20:48:12.345Z,26.83
2022-12-20T20:51:14.772Z,26.90
2022-12-20T20:54:17.745Z,26.20
2022-12-20T20:57:20.352Z,26.48
2022-12-20T21:00:25.255Z,26.77
2022-12-20T21:03:30.182Z,24.90
2022-12-20T21:06:40.540Z,27.05
2022-12-20T21:09:44.761Z,25.60
2022-12-20T21:12:47.962Z,25.75
2022-12-20T21:15:50.545Z,27.13
2022-12-20T21:18:58.290Z,26.62
2022-12-20T21:22:00.901Z,27.33
2022-12-20T21:25:05.593Z,26.90
2022-12-20T21:28:13.955Z,25.92
2022-12-20T21:31:19.597Z,27.45
2022-12-20T21:34:22.536Z,27.13
2022-12-20T21:37:25.693Z,28.10
2022-12-20T21:40:28.002Z,27.27
2022-12-20T21:43:31.818Z,25.30
2022-12-20T21:46:34.212Z,25.75
2022-12-20T21:49:36.839Z,27.45
2022-12-20T21:52:41.861Z,26.98
2022-12-20T21:55:44.790Z,29.08
2022-12-20T21:58:47.518Z,28.35
2022-12-20T22:01:50.761Z,27.92
2022-12-20T22:04:53.887Z,28.67
2022-12-20T22:07:58.226Z,28.52
2022-12-20T22:11:03.340Z,28.95
2022-12-20T22:14:06.727Z,29.33
2022-12-20T22:17:09.665Z,28.83
2022-12-20T22:20:14.108Z,27.37
2022-12-20T22:23:16.923Z,28.67
2022-12-20T22:26:22.138Z,27.33
2022-12-20T22:29:24.804Z,28.65
2022-12-20T22:32:27.910Z,28.77
2022-12-20T22:35:30.896Z,28.92
2022-12-20T22:38:35.161Z,27.98
2022-12-20T22:41:38.443Z,28.00
2022-12-20T22:44:40.858Z,29.08
2022-12-20T22:47:43.365Z,28.25
2022-12-20T22:50:45.577Z,27.27
2022-12-20T22:53:49.779Z,26.52
2022-12-20T22:56:53.377Z,27.30
2022-12-20T22:59:59.453Z,28.15
2022-12-20T23:03:02.067Z,27.30
2022-12-20T23:06:06.717Z,25.30
2022-12-20T23:09:09.258Z,27.27
2022-12-20T23:12:30.925Z,27.08
2022-12-20T23:15:42.343Z,25.37
2022-12-20T23:18:44.908Z,25.30
2022-12-20T23:22:05.959Z,25.02
2022-12-20T23:25:14.498Z,26.60
2022-12-20T23:28:16.752Z,25.12
2022-12-20T23:31:19.444Z,26.20
2022-12-20T23:34:22.384Z,27.40
2022-12-20T23:37:25.015Z,25.58
2022-12-20T23:40:27.233Z,25.70
2022-12-20T23:43:30.819Z,26.52
2022-12-20T23:46:34.509Z,25.50
2022-12-20T23:49:37.244Z,26.52
2022-12-20T23:52:39.506Z,25.77
2022-12-20T23:55:42.391Z,25.70
2022-12-20T23:58:46.234Z,25.35
